Time;durP1;ratioP1;P1;durP2;ratioP2;P2;SDS_P1;SDS_P2;PMS_P1;PMS_P2;Temp;Humidity;BMP_temperature;BMP_pressure;BME280_temperature;BME280_humidity;BME280_pressure;Samples;Min_cycle;Max_cycle;Signal;HPM_P1;HPM_P2
2022/07/30 00:01:28;;;;;;;60.83;50.42;;;24.90;50.90;;;;;;4935013;28;94247;-46
2022/07/30 00:03:54;;;;;;;60.92;50.20;;;24.80;50.90;;;;;;4940467;28;90106;-48
2022/07/30 00:06:20;;;;;;;60.72;50.45;;;24.80;50.90;;;;;;4945763;28;90307;-48
2022/07/30 00:08:45;;;;;;;60.42;50.35;;;24.80;50.90;;;;;;4944857;28;92642;-44
2022/07/30 00:11:11;;;;;;;60.22;50.83;;;24.80;51.00;;;;;;4956968;28;94480;-48
2022/07/30 00:13:37;;;;;;;60.15;50.42;;;24.80;51.10;;;;;;4946089;28;90029;-47
2022/07/30 00:16:03;;;;;;;60.70;50.55;;;24.80;51.10;;;;;;4949694;28;90433;-46
2022/07/30 00:18:28;;;;;;;60.67;50.35;;;24.80;51.20;;;;;;4937585;28;91517;-46
2022/07/30 00:20:54;;;;;;;60.15;50.45;;;24.80;51.20;;;;;;4935675;28;89926;-49
2022/07/30 00:23:20;;;;;;;60.45;50.38;;;24.80;51.20;;;;;;4946537;28;89611;-49
2022/07/30 00:25:45;;;;;;;59.70;50.35;;;24.80;51.30;;;;;;4940066;28;91242;-47
2022/07/30 00:28:11;;;;;;;60.28;50.38;;;24.70;51.30;;;;;;4942883;28;89757;-45
2022/07/30 00:30:37;;;;;;;60.33;50.22;;;24.70;51.30;;;;;;4942847;28;91644;-44
2022/07/30 00:33:03;;;;;;;60.53;50.42;;;24.70;51.40;;;;;;4946637;28;89649;-46
2022/07/30 00:35:29;;;;;;;60.35;50.45;;;24.70;51.50;;;;;;4941410;28;89910;-45
2022/07/30 00:37:54;;;;;;;60.55;50.20;;;24.70;51.50;;;;;;4940407;28;90317;-44
2022/07/30 00:40:20;;;;;;;60.00;50.22;;;24.70;51.50;;;;;;4948896;28;90358;-47
2022/07/30 00:42:47;;;;;;;60.22;50.05;;;24.60;51.50;;;;;;4937331;28;95934;-51
2022/07/30 00:45:15;;;;;;;60.08;50.60;;;24.60;51.60;;;;;;4951329;28;93196;-44
2022/07/30 00:47:41;;;;;;;62.03;50.80;;;24.60;51.60;;;;;;4938792;28;99985;-44
2022/07/30 00:50:09;;;;;;;60.13;50.28;;;24.60;51.70;;;;;;4934869;28;90884;-44
2022/07/30 00:52:37;;;;;;;59.78;50.17;;;24.60;51.80;;;;;;4943579;28;93119;-46
2022/07/30 00:55:03;;;;;;;60.03;50.55;;;24.50;51.70;;;;;;4938729;28;90773;-48
2022/07/30 00:57:29;;;;;;;60.67;50.53;;;24.50;51.80;;;;;;4938266;28;90570;-46
2022/07/30 00:59:54;;;;;;;59.97;50.25;;;24.60;51.80;;;;;;4945538;28;89583;-47
2022/07/30 01:02:21;;;;;;;59.80;50.45;;;24.50;51.80;;;;;;4945684;28;89729;-47
2022/07/30 01:04:47;;;;;;;58.95;50.25;;;24.50;52.00;;;;;;4937235;28;92373;-45
2022/07/30 01:07:12;;;;;;;59.35;50.45;;;24.50;52.00;;;;;;4936815;28;93152;-51
2022/07/30 01:09:38;;;;;;;59.72;50.05;;;24.50;52.00;;;;;;4947598;28;89853;-47
2022/07/30 01:12:05;;;;;;;59.75;50.33;;;24.50;52.10;;;;;;4942968;28;90727;-50
2022/07/30 01:14:33;;;;;;;59.88;50.38;;;24.50;52.10;;;;;;4948456;28;91594;-47
2022/07/30 01:17:00;;;;;;;60.22;50.28;;;24.50;52.10;;;;;;4941195;28;95216;-44
2022/07/30 01:19:47;;;;;;;59.40;50.42;;;24.50;52.20;;;;;;4940242;28;89754;-49
2022/07/30 01:22:27;;;;;;;59.33;50.13;;;24.40;52.30;;;;;;4944024;28;89887;-46
2022/07/30 01:25:19;;;;;;;60.53;50.55;;;24.40;52.30;;;;;;4934007;28;93236;-44
2022/07/30 01:28:06;;;;;;;59.55;50.25;;;24.40;52.20;;;;;;4944208;28;89847;-47
2022/07/30 01:30:37;;;;;;;59.75;50.25;;;24.40;52.30;;;;;;4938997;28;94096;-48
2022/07/30 01:33:04;;;;;;;59.13;50.00;;;24.40;52.40;;;;;;4939034;28;92524;-44
2022/07/30 01:35:33;;;;;;;59.63;50.40;;;24.40;52.40;;;;;;4946141;28;90653;-47
2022/07/30 01:38:00;;;;;;;59.67;50.33;;;24.40;52.50;;;;;;4946540;28;90307;-46
2022/07/30 01:40:27;;;;;;;60.40;50.45;;;24.40;52.60;;;;;;4946913;28;91321;-45
2022/07/30 01:42:56;;;;;;;59.63;50.30;;;24.40;52.60;;;;;;4945686;28;93041;-44
2022/07/30 01:45:27;;;;;;;59.47;50.58;;;24.40;52.50;;;;;;4935073;28;95373;-45
2022/07/30 01:47:54;;;;;;;59.35;50.25;;;24.40;52.50;;;;;;4945442;28;91217;-46
2022/07/30 01:50:21;;;;;;;59.45;50.22;;;24.40;52.50;;;;;;4934890;28;90546;-48
2022/07/30 01:52:50;;;;;;;59.65;50.38;;;24.40;52.50;;;;;;4934591;28;90540;-46
2022/07/30 01:55:20;;;;;;;59.47;50.15;;;24.40;52.60;;;;;;4938077;28;90318;-45
2022/07/30 01:57:47;;;;;;;60.05;50.20;;;24.30;52.50;;;;;;4943905;28;93206;-49
2022/07/30 02:00:13;;;;;;;60.10;50.42;;;24.30;52.60;;;;;;4945964;28;90061;-47
2022/07/30 02:02:40;;;;;;;59.17;50.10;;;24.30;52.60;;;;;;4941955;28;89803;-48
2022/07/30 02:05:08;;;;;;;60.35;50.55;;;24.30;52.70;;;;;;4931552;28;91874;-45
2022/07/30 02:07:57;;;;;;;59.28;50.45;;;24.30;52.60;;;;;;4947798;28;91535;-47
2022/07/30 02:10:30;;;;;;;59.72;50.45;;;24.30;52.70;;;;;;4940764;28;91620;-48
2022/07/30 02:13:00;;;;;;;58.88;50.15;;;24.20;52.90;;;;;;4939697;28;90034;-49
2022/07/30 02:15:36;;;;;;;58.92;50.17;;;24.20;52.90;;;;;;4935260;28;90245;-45
2022/07/30 02:18:15;;;;;;;61.30;50.10;;;24.20;52.90;;;;;;4938362;28;95464;-48
2022/07/30 02:20:45;;;;;;;60.30;50.33;;;24.20;53.00;;;;;;4933033;28;90390;-45
2022/07/30 02:23:14;;;;;;;59.13;50.22;;;24.20;52.90;;;;;;4942711;28;91067;-50
2022/07/30 02:25:46;;;;;;;59.10;50.10;;;24.20;52.90;;;;;;4938882;28;90965;-45
2022/07/30 02:28:13;;;;;;;;;;;24.20;53.00;;;;;;4937560;28;94087;-45
2022/07/30 02:30:44;;;;;;;59.08;49.95;;;24.10;53.10;;;;;;4941410;28;93249;-47
2022/07/30 02:33:12;;;;;;;59.17;50.28;;;24.20;53.10;;;;;;4945163;28;90551;-45
2022/07/30 02:35:40;;;;;;;60.22;50.25;;;24.20;53.00;;;;;;4944278;28;95407;-48
2022/07/30 02:38:07;;;;;;;59.30;50.17;;;24.10;53.10;;;;;;4939585;28;90106;-46
2022/07/30 02:40:34;;;;;;;60.13;50.50;;;24.10;53.20;;;;;;4945686;28;96911;-51
2022/07/30 02:43:00;;;;;;;59.08;49.85;;;24.10;53.20;;;;;;4943840;28;89864;-46
2022/07/30 02:45:28;;;;;;;58.92;50.50;;;24.10;53.20;;;;;;4943615;28;90011;-46
2022/07/30 02:48:08;;;;;;;59.72;50.35;;;24.00;53.20;;;;;;4942363;28;92541;-50
2022/07/30 02:50:35;;;;;;;58.43;49.77;;;24.00;53.20;;;;;;4937801;28;91700;-46
2022/07/30 02:53:04;;;;;;;60.85;50.40;;;24.10;53.30;;;;;;4941202;28;90223;-50
2022/07/30 02:55:33;;;;;;;58.50;50.08;;;24.00;53.30;;;;;;4939981;28;91594;-46
2022/07/30 02:58:00;;;;;;;59.53;50.28;;;24.00;53.40;;;;;;4946995;28;91481;-44
2022/07/30 03:00:27;;;;;;;60.15;50.28;;;24.00;53.30;;;;;;4938523;28;92059;-48
2022/07/30 03:02:54;;;;;;;59.35;50.22;;;24.00;53.40;;;;;;4943848;28;92467;-50
2022/07/30 03:05:20;;;;;;;60.42;50.28;;;24.00;53.50;;;;;;4944481;28;90011;-48
2022/07/30 03:07:47;;;;;;;58.75;49.92;;;24.00;53.40;;;;;;4943931;28;90128;-45
2022/07/30 03:10:13;;;;;;;59.92;50.35;;;23.90;53.40;;;;;;4937897;28;89993;-49
2022/07/30 03:12:40;;;;;;;59.30;50.08;;;24.00;53.50;;;;;;4944929;28;88734;-45
2022/07/30 03:15:07;;;;;;;60.08;50.53;;;23.90;53.50;;;;;;4948746;28;89638;-46
2022/07/30 03:17:39;;;;;;;59.35;50.05;;;23.90;53.60;;;;;;4936506;28;90016;-45
2022/07/30 03:20:08;;;;;;;58.50;50.17;;;23.90;53.60;;;;;;4937144;28;97215;-47
2022/07/30 03:22:40;;;;;;;60.45;50.35;;;23.90;53.60;;;;;;4952863;28;90542;-46
2022/07/30 03:25:07;;;;;;;58.72;49.92;;;23.90;53.60;;;;;;4944837;28;93003;-45
2022/07/30 03:27:38;;;;;;;58.63;50.28;;;23.90;53.50;;;;;;4940686;28;91965;-47
2022/07/30 03:30:04;;;;;;;58.15;49.95;;;23.90;53.60;;;;;;4934933;28;96558;-47
2022/07/30 03:32:31;;;;;;;59.75;50.20;;;23.90;53.70;;;;;;4946744;28;91087;-50
2022/07/30 03:34:58;;;;;;;59.83;49.88;;;23.90;53.80;;;;;;4944520;28;91670;-48
2022/07/30 03:37:26;;;;;;;59.75;50.25;;;23.80;53.70;;;;;;4940930;28;93498;-47
2022/07/30 03:39:52;;;;;;;59.83;49.97;;;23.80;53.70;;;;;;4932847;28;89921;-47
2022/07/30 03:42:20;;;;;;;59.70;50.30;;;23.80;53.70;;;;;;4941288;28;90212;-48
2022/07/30 03:44:46;;;;;;;58.80;50.10;;;23.80;53.80;;;;;;4941408;28;92274;-49
2022/07/30 03:47:14;;;;;;;59.30;50.08;;;23.80;53.80;;;;;;4934142;28;90801;-47
2022/07/30 03:49:40;;;;;;;58.75;50.10;;;23.80;53.80;;;;;;4935317;28;92593;-46
2022/07/30 03:52:07;;;;;;;58.72;50.33;;;23.80;53.80;;;;;;4945323;28;95420;-44
2022/07/30 03:54:33;;;;;;;58.75;49.97;;;23.70;53.80;;;;;;4944580;28;91578;-45
2022/07/30 03:57:01;;;;;;;59.65;50.38;;;23.80;53.90;;;;;;4943574;28;94463;-48
2022/07/30 03:59:28;;;;;;;58.35;50.08;;;23.80;53.80;;;;;;4945144;28;90015;-50
2022/07/30 04:01:58;;;;;;;59.83;50.30;;;23.70;53.80;;;;;;4940942;28;89794;-46
2022/07/30 04:04:24;;;;;;;59.10;50.40;;;23.70;53.90;;;;;;4942041;28;91006;-45
2022/07/30 04:06:49;;;;;;;58.03;49.92;;;23.70;53.80;;;;;;4928656;28;91977;-52
2022/07/30 04:09:15;;;;;;;58.78;50.05;;;23.70;53.90;;;;;;4936941;28;93178;-46
2022/07/30 04:11:41;;;;;;;59.17;50.40;;;23.70;53.90;;;;;;4951861;28;95326;-47
2022/07/30 04:14:06;;;;;;;58.80;50.08;;;23.70;53.90;;;;;;4937593;28;90291;-50
2022/07/30 04:17:19;;;;;;;59.92;50.05;;;23.70;53.90;;;;;;4936849;28;91524;-45
2022/07/30 04:19:55;;;;;;;58.90;49.92;;;23.70;53.90;;;;;;4927037;28;93064;-45
2022/07/30 04:22:31;;;;;;;59.33;50.33;;;23.70;53.90;;;;;;4932537;28;94239;-44
2022/07/30 04:24:58;;;;;;;58.55;50.20;;;23.70;54.00;;;;;;4946244;28;93510;-45
2022/07/30 04:27:25;;;;;;;58.17;49.72;;;23.70;53.90;;;;;;4941230;28;90676;-44
2022/07/30 04:29:53;;;;;;;58.97;50.17;;;23.70;53.90;;;;;;4948408;28;90971;-45
2022/07/30 04:32:19;;;;;;;60.30;50.00;;;23.70;54.00;;;;;;4935356;28;90639;-45
2022/07/30 04:34:48;;;;;;;58.33;49.95;;;23.70;54.00;;;;;;4937438;28;94730;-47
2022/07/30 04:37:15;;;;;;;59.70;50.08;;;23.70;53.90;;;;;;4940671;28;94718;-46
2022/07/30 04:39:41;;;;;;;58.88;50.10;;;23.70;54.00;;;;;;4939564;28;89653;-49
2022/07/30 04:42:07;;;;;;;59.50;50.13;;;23.60;54.00;;;;;;4938619;28;90975;-44
2022/07/30 04:44:33;;;;;;;58.50;50.38;;;23.60;54.00;;;;;;4940479;28;90660;-49
2022/07/30 04:46:59;;;;;;;58.85;50.28;;;23.60;54.00;;;;;;4942348;28;92554;-47
2022/07/30 04:49:26;;;;;;;58.25;49.78;;;23.60;54.00;;;;;;4941647;28;91153;-47
2022/07/30 04:51:53;;;;;;;58.60;49.97;;;23.60;54.00;;;;;;4928303;28;88832;-47
2022/07/30 04:54:20;;;;;;;58.95;49.97;;;23.60;54.00;;;;;;4941489;28;90324;-48
2022/07/30 04:56:47;;;;;;;58.47;49.78;;;23.60;53.90;;;;;;4944697;28;91516;-47
2022/07/30 04:59:16;;;;;;;58.08;49.90;;;23.60;54.00;;;;;;4940862;28;90906;-46
2022/07/30 05:01:47;;;;;;;58.55;50.17;;;23.60;54.00;;;;;;4937793;28;95159;-48
2022/07/30 05:04:14;;;;;;;58.33;49.85;;;23.60;54.00;;;;;;4939176;28;93896;-48
2022/07/30 05:06:41;;;;;;;59.10;50.05;;;23.60;54.00;;;;;;4944175;28;92185;-45
2022/07/30 05:09:07;;;;;;;60.03;49.78;;;23.60;54.00;;;;;;4937721;28;95178;-47
2022/07/30 05:11:33;;;;;;;58.45;50.15;;;23.60;53.90;;;;;;4945011;28;91132;-52
2022/07/30 05:13:59;;;;;;;59.50;50.15;;;23.60;53.90;;;;;;4937184;28;90647;-46
2022/07/30 05:16:26;;;;;;;58.72;49.85;;;23.70;53.90;;;;;;4940185;28;90748;-47
2022/07/30 05:18:52;;;;;;;58.38;50.13;;;23.70;53.80;;;;;;4938675;28;92718;-47
2022/07/30 05:21:17;;;;;;;58.30;49.85;;;23.70;53.70;;;;;;4942108;28;90514;-47
2022/07/30 05:23:43;;;;;;;57.85;49.72;;;23.70;53.70;;;;;;4935508;28;92226;-47
2022/07/30 05:26:10;;;;;;;58.63;50.10;;;23.80;54.10;;;;;;4937665;28;92451;-48
2022/07/30 05:28:35;;;;;;;60.08;50.00;;;23.80;53.40;;;;;;4935267;28;90583;-49
2022/07/30 05:31:01;;;;;;;58.30;50.22;;;23.90;53.30;;;;;;4938170;28;94857;-47
2022/07/30 05:33:27;;;;;;;58.95;50.15;;;23.90;53.10;;;;;;4944457;28;95187;-46
2022/07/30 05:35:53;;;;;;;58.13;50.17;;;23.90;53.00;;;;;;4936781;28;91109;-44
2022/07/30 05:38:19;;;;;;;58.90;49.80;;;23.90;53.00;;;;;;4936138;28;90192;-48
2022/07/30 05:40:45;;;;;;;58.55;50.25;;;23.90;53.10;;;;;;4945629;28;90429;-47
2022/07/30 05:43:11;;;;;;;59.83;50.35;;;23.90;53.20;;;;;;4938882;28;94417;-44
2022/07/30 05:45:37;;;;;;;59.25;50.00;;;23.90;53.10;;;;;;4935697;28;90414;-48
2022/07/30 05:48:03;;;;;;;58.58;50.03;;;23.90;53.20;;;;;;4937216;28;97383;-46
2022/07/30 05:50:29;;;;;;;58.47;50.15;;;23.90;53.10;;;;;;4940446;28;90058;-47
2022/07/30 05:52:56;;;;;;;58.25;49.63;;;23.90;52.90;;;;;;4934913;28;91772;-51
2022/07/30 05:55:22;;;;;;;58.85;50.03;;;23.90;53.00;;;;;;4937223;28;94029;-49
2022/07/30 05:57:47;;;;;;;59.58;49.97;;;23.90;53.00;;;;;;4932817;28;90594;-45
2022/07/30 06:00:13;;;;;;;59.80;50.20;;;23.90;52.70;;;;;;4939199;28;93430;-47
2022/07/30 06:02:39;;;;;;;59.97;49.97;;;23.90;53.10;;;;;;4935021;28;90798;-47
2022/07/30 06:05:05;;;;;;;58.03;49.92;;;23.90;53.10;;;;;;4940791;28;90869;-48
2022/07/30 06:07:31;;;;;;;59.28;50.30;;;23.90;53.20;;;;;;4943361;28;90112;-48
2022/07/30 06:09:59;;;;;;;59.35;50.10;;;23.90;53.10;;;;;;4947193;28;96522;-48
2022/07/30 06:12:26;;;;;;;61.00;50.08;;;24.00;52.90;;;;;;4945577;28;91459;-48
2022/07/30 06:14:52;;;;;;;60.03;50.33;;;24.00;52.80;;;;;;4940610;28;94406;-48
2022/07/30 06:17:17;;;;;;;58.97;50.03;;;24.00;52.90;;;;;;4950465;28;94147;-52
2022/07/30 06:19:43;;;;;;;60.50;50.05;;;24.00;52.80;;;;;;4942221;28;90137;-46
2022/07/30 06:22:08;;;;;;;58.35;50.13;;;24.00;52.70;;;;;;4934320;28;90551;-46
2022/07/30 06:24:34;;;;;;;58.65;50.03;;;24.10;52.70;;;;;;4944763;28;90820;-45
2022/07/30 06:27:00;;;;;;;58.90;50.00;;;24.10;52.60;;;;;;4944560;28;90618;-49
2022/07/30 06:29:25;;;;;;;58.88;50.15;;;24.10;53.20;;;;;;4935560;28;96236;-48
2022/07/30 06:31:51;;;;;;;59.47;50.33;;;24.10;52.50;;;;;;4940131;28;96044;-45
2022/07/30 06:34:17;;;;;;;59.67;50.15;;;24.10;52.50;;;;;;4946938;28;94480;-48
2022/07/30 06:36:42;;;;;;;61.15;50.20;;;24.10;52.50;;;;;;4936040;28;94540;-45
2022/07/30 06:39:08;;;;;;;59.08;50.08;;;24.10;52.50;;;;;;4942839;28;90615;-47
2022/07/30 06:41:34;;;;;;;59.65;50.35;;;24.10;52.50;;;;;;4946728;28;90228;-49
2022/07/30 06:43:59;;;;;;;58.85;49.92;;;24.10;52.40;;;;;;4941800;28;92674;-50
2022/07/30 06:46:25;;;;;;;59.28;50.22;;;24.10;52.60;;;;;;4941656;28;89861;-48
2022/07/30 06:48:50;;;;;;;60.75;50.17;;;24.10;52.50;;;;;;4941334;28;94455;-49
2022/07/30 06:51:16;;;;;;;59.65;50.25;;;24.10;52.40;;;;;;4939155;28;91822;-45
2022/07/30 06:53:44;;;;;;;60.60;50.55;;;24.10;52.40;;;;;;4936970;28;92241;-47
2022/07/30 06:56:10;;;;;;;61.17;50.40;;;24.10;52.30;;;;;;4945992;28;92268;-47
2022/07/30 06:58:36;;;;;;;59.40;50.35;;;24.10;52.40;;;;;;4931256;28;95496;-45
2022/07/30 07:01:02;;;;;;;59.28;50.25;;;24.10;52.40;;;;;;4945378;28;91792;-46
2022/07/30 07:03:28;;;;;;;59.35;50.45;;;24.20;52.40;;;;;;4936453;28;90733;-51
2022/07/30 07:05:53;;;;;;;60.58;50.72;;;24.20;52.30;;;;;;4940981;28;89853;-51
2022/07/30 07:08:19;;;;;;;62.13;50.55;;;24.40;52.20;;;;;;4944515;28;93077;-47
2022/07/30 07:10:45;;;;;;;60.22;50.30;;;24.50;52.00;;;;;;4941067;28;91864;-46
2022/07/30 07:13:10;;;;;;;60.50;50.25;;;24.50;51.80;;;;;;4946886;28;97364;-52
2022/07/30 07:15:36;;;;;;;62.45;50.22;;;24.70;51.50;;;;;;4950808;28;91391;-47
2022/07/30 07:18:02;;;;;;;60.67;50.00;;;24.70;51.30;;;;;;4950901;28;89062;-47
2022/07/30 07:20:28;;;;;;;62.10;50.42;;;24.80;51.30;;;;;;4943780;28;90702;-50
2022/07/30 07:22:53;;;;;;;60.83;50.55;;;24.80;51.50;;;;;;4933988;28;90521;-46
2022/07/30 07:25:19;;;;;;;61.88;50.83;;;24.90;51.40;;;;;;4941578;28;90670;-47
2022/07/30 07:27:44;;;;;;;60.67;50.42;;;25.00;51.30;;;;;;4951209;28;94060;-47
2022/07/30 07:30:10;;;;;;;61.38;50.45;;;25.00;51.20;;;;;;4940579;28;92285;-48
2022/07/30 07:32:36;;;;;;;62.88;50.95;;;25.10;51.00;;;;;;4943360;28;91649;-50
2022/07/30 07:35:02;;;;;;;62.55;50.60;;;25.10;50.90;;;;;;4935363;28;91544;-50
2022/07/30 07:37:28;;;;;;;61.53;50.65;;;25.20;51.30;;;;;;4950616;28;90649;-49
2022/07/30 07:39:54;;;;;;;60.50;50.67;;;25.20;51.40;;;;;;4939430;28;90339;-49
2022/07/30 07:42:20;;;;;;;60.95;50.60;;;25.20;51.20;;;;;;4939058;28;91901;-48
2022/07/30 07:44:45;;;;;;;60.20;50.42;;;25.20;51.10;;;;;;4944759;28;91214;-52
2022/07/30 07:47:11;;;;;;;62.83;50.78;;;25.20;51.90;;;;;;4947159;28;91932;-51
2022/07/30 07:49:36;;;;;;;60.47;50.63;;;25.20;51.10;;;;;;4940403;28;90591;-52
2022/07/30 07:52:03;;;;;;;61.22;50.95;;;25.20;51.10;;;;;;4939983;28;91366;-48
2022/07/30 07:54:28;;;;;;;66.00;50.97;;;25.20;51.40;;;;;;4948891;28;89713;-48
2022/07/30 07:56:57;;;;;;;60.67;50.67;;;25.20;51.60;;;;;;4939679;28;90821;-50
2022/07/30 07:59:23;;;;;;;61.17;50.53;;;25.20;51.50;;;;;;4940980;28;90574;-45
2022/07/30 08:01:49;;;;;;;63.13;50.83;;;25.20;51.50;;;;;;4942432;28;90309;-45
2022/07/30 08:04:15;;;;;;;63.10;51.10;;;25.20;51.30;;;;;;4931047;28;97058;-45
2022/07/30 08:06:41;;;;;;;66.80;52.58;;;25.20;51.10;;;;;;4933786;28;96986;-45
2022/07/30 08:09:07;;;;;;;62.60;51.72;;;25.10;50.70;;;;;;4934742;28;91571;-47
2022/07/30 08:11:32;;;;;;;68.38;51.72;;;24.80;49.80;;;;;;4934750;28;91277;-44
2022/07/30 08:13:58;;;;;;;65.28;51.28;;;24.70;51.10;;;;;;4936776;28;90745;-45
2022/07/30 08:16:24;;;;;;;64.50;51.47;;;24.70;50.90;;;;;;4931709;28;93564;-46
2022/07/30 08:18:49;;;;;;;62.67;51.13;;;24.60;51.70;;;;;;4926551;28;90408;-43
2022/07/30 08:21:15;;;;;;;63.20;51.30;;;24.60;50.30;;;;;;4936653;28;91502;-43
2022/07/30 08:23:41;;;;;;;64.13;51.17;;;24.50;50.40;;;;;;4932772;28;93628;-44
2022/07/30 08:26:06;;;;;;;64.28;50.92;;;24.50;50.10;;;;;;4919116;28;91753;-47
2022/07/30 08:28:34;;;;;;;65.97;51.45;;;24.50;50.80;;;;;;4930113;28;94059;-44
2022/07/30 08:30:59;;;;;;;61.92;51.13;;;24.40;50.90;;;;;;4941456;28;90788;-45
2022/07/30 08:33:25;;;;;;;64.75;51.08;;;24.50;48.10;;;;;;4932427;28;94956;-43
2022/07/30 08:35:50;;;;;;;62.53;51.63;;;24.40;49.10;;;;;;4933964;28;89893;-43
2022/07/30 08:38:16;;;;;;;63.20;51.35;;;24.40;49.00;;;;;;4930824;28;93228;-43
2022/07/30 08:40:42;;;;;;;63.72;51.28;;;24.40;48.80;;;;;;4942751;28;92199;-45
2022/07/30 08:43:08;;;;;;;62.10;50.95;;;24.40;48.30;;;;;;4938338;28;90710;-45
2022/07/30 08:45:34;;;;;;;63.15;51.53;;;24.40;48.00;;;;;;4933226;28;91314;-48
2022/07/30 08:48:01;;;;;;;60.85;50.75;;;24.40;48.30;;;;;;4952458;28;90463;-48
2022/07/30 08:50:28;;;;;;;63.13;50.90;;;24.50;48.00;;;;;;4934853;28;91115;-46
2022/07/30 08:52:55;;;;;;;63.97;50.78;;;24.50;48.30;;;;;;4930940;28;93815;-48
2022/07/30 08:55:24;;;;;;;65.43;51.20;;;24.50;48.30;;;;;;4942081;28;90286;-43
2022/07/30 08:57:50;;;;;;;62.97;51.42;;;24.50;48.50;;;;;;4944448;28;90113;-48
2022/07/30 09:00:17;;;;;;;61.60;50.78;;;24.50;46.20;;;;;;4933560;28;95025;-48
2022/07/30 09:02:44;;;;;;;62.88;51.05;;;24.40;46.40;;;;;;4935527;28;91141;-51
2022/07/30 09:05:11;;;;;;;62.47;51.17;;;24.30;46.60;;;;;;4941741;28;90274;-43
2022/07/30 09:07:37;;;;;;;67.53;51.67;;;24.40;48.20;;;;;;4923888;28;91254;-43
2022/07/30 09:10:07;;;;;;;63.08;51.15;;;24.50;48.10;;;;;;4935131;28;91564;-45
2022/07/30 09:12:43;;;;;;;66.30;52.05;;;24.50;48.60;;;;;;4936875;28;90740;-44
2022/07/30 09:15:15;;;;;;;64.60;52.13;;;24.70;49.00;;;;;;4938194;28;90518;-48
2022/07/30 09:18:01;;;;;;;64.07;51.85;;;24.70;48.30;;;;;;4934882;28;96024;-49
2022/07/30 09:20:29;;;;;;;63.45;51.45;;;24.60;48.70;;;;;;4928255;28;94992;-45
2022/07/30 09:22:57;;;;;;;65.88;52.35;;;24.70;49.00;;;;;;4936869;28;89908;-49
2022/07/30 09:25:36;;;;;;;65.95;51.53;;;24.70;48.10;;;;;;4941133;28;89842;-45
2022/07/30 09:28:03;;;;;;;64.25;51.25;;;24.80;49.10;;;;;;4925408;28;91336;-49
2022/07/30 09:30:55;;;;;;;64.35;51.28;;;24.80;48.60;;;;;;4931159;28;91712;-43
2022/07/30 09:33:41;;;;;;;63.38;51.20;;;24.80;49.20;;;;;;4930601;28;89790;-43
2022/07/30 09:36:10;;;;;;;65.60;51.45;;;24.90;45.80;;;;;;4937853;28;91124;-51
2022/07/30 09:38:52;;;;;;;66.22;51.25;;;24.90;48.10;;;;;;4938948;28;89770;-45
2022/07/30 09:41:24;;;;;;;64.05;50.80;;;25.10;47.70;;;;;;4941882;28;90032;-43
2022/07/30 09:43:51;;;;;;;63.80;51.42;;;25.00;48.20;;;;;;4936636;28;91405;-46
2022/07/30 09:46:17;;;;;;;63.92;50.97;;;25.00;46.80;;;;;;4938924;28;90946;-44
2022/07/30 09:48:45;;;;;;;64.55;51.35;;;25.20;46.50;;;;;;4937773;28;91929;-43
2022/07/30 09:51:12;;;;;;;62.88;50.95;;;25.30;46.00;;;;;;4934071;28;97115;-49
2022/07/30 09:53:57;;;;;;;64.80;51.40;;;25.20;47.50;;;;;;4933623;28;93726;-47
2022/07/30 09:56:27;;;;;;;63.95;51.40;;;25.30;47.30;;;;;;4922165;28;92615;-47
2022/07/30 09:58:53;;;;;;;64.07;51.00;;;25.30;47.50;;;;;;4931317;28;91207;-46
2022/07/30 10:01:19;;;;;;;64.28;51.08;;;25.40;48.00;;;;;;4943960;28;90534;-44
2022/07/30 10:03:45;;;;;;;63.45;51.40;;;25.40;47.90;;;;;;4937383;28;90732;-43
2022/07/30 10:06:11;;;;;;;67.30;51.35;;;25.50;47.70;;;;;;4937941;28;93194;-42
2022/07/30 10:08:39;;;;;;;63.83;51.05;;;25.60;45.50;;;;;;4941316;28;90231;-45
2022/07/30 10:11:05;;;;;;;62.72;51.20;;;25.60;46.80;;;;;;4925020;28;90370;-48
2022/07/30 10:13:32;;;;;;;63.40;51.35;;;25.60;46.20;;;;;;4936499;28;97158;-45
2022/07/30 10:15:59;;;;;;;63.88;51.42;;;25.70;45.70;;;;;;4928858;28;92462;-46
2022/07/30 10:18:26;;;;;;;62.75;51.45;;;25.70;45.00;;;;;;4931858;28;91642;-46
2022/07/30 10:20:52;;;;;;;64.45;51.33;;;25.70;46.10;;;;;;4923949;28;89888;-48
2022/07/30 10:23:18;;;;;;;67.13;51.63;;;25.70;46.50;;;;;;4930150;28;92193;-47
2022/07/30 10:25:44;;;;;;;63.50;51.45;;;25.70;46.80;;;;;;4938272;28;90902;-43
2022/07/30 10:28:10;;;;;;;63.88;51.50;;;25.80;47.00;;;;;;4926250;28;91790;-42
2022/07/30 10:30:36;;;;;;;63.67;51.25;;;25.80;46.70;;;;;;4931023;28;91615;-47
2022/07/30 10:33:03;;;;;;;62.67;51.28;;;25.80;46.90;;;;;;4933892;28;91650;-49
2022/07/30 10:35:28;;;;;;;65.60;51.72;;;25.80;43.60;;;;;;4935101;28;90424;-50
2022/07/30 10:37:57;;;;;;;64.32;51.55;;;25.80;47.00;;;;;;4939588;28;90495;-47
2022/07/30 10:40:37;;;;;;;65.95;51.55;;;25.80;46.10;;;;;;4933698;28;94947;-48
2022/07/30 10:43:06;;;;;;;64.30;51.17;;;25.90;46.20;;;;;;4941315;28;91191;-47
2022/07/30 10:45:37;;;;;;;66.22;51.58;;;25.90;46.80;;;;;;4931335;28;90484;-46
2022/07/30 10:48:03;;;;;;;64.40;51.45;;;25.90;47.80;;;;;;4933344;28;96695;-46
2022/07/30 10:50:29;;;;;;;62.60;51.42;;;26.00;47.90;;;;;;4940265;28;96689;-46
2022/07/30 10:53:02;;;;;;;64.65;51.92;;;26.00;47.70;;;;;;4928398;28;94858;-45
2022/07/30 10:55:34;;;;;;;65.63;51.85;;;26.00;47.80;;;;;;4934423;28;89539;-44
2022/07/30 10:57:59;;;;;;;64.03;51.75;;;26.00;47.90;;;;;;4922764;28;92641;-45
2022/07/30 11:00:26;;;;;;;64.82;51.92;;;26.00;47.60;;;;;;4937493;28;94856;-45
2022/07/30 11:03:12;;;;;;;64.78;51.63;;;26.10;47.00;;;;;;4942075;28;95429;-45
2022/07/30 11:05:37;;;;;;;63.40;51.67;;;26.10;47.00;;;;;;4940350;28;95333;-45
2022/07/30 11:08:32;;;;;;;62.80;51.58;;;26.10;46.10;;;;;;4922815;28;92776;-48
2022/07/30 11:10:59;;;;;;;62.95;51.33;;;26.20;46.10;;;;;;4932630;28;94432;-48
2022/07/30 11:13:56;;;;;;;63.28;51.40;;;26.20;45.40;;;;;;4935839;28;91781;-44
2022/07/30 11:16:24;;;;;;;63.53;51.83;;;26.20;44.40;;;;;;4931403;28;89575;-44
2022/07/30 11:19:12;;;;;;;64.70;51.65;;;26.10;45.60;;;;;;4923902;28;90327;-44
2022/07/30 11:21:38;;;;;;;65.05;51.75;;;26.20;44.80;;;;;;4922605;28;92251;-48
2022/07/30 11:24:04;;;;;;;63.15;51.63;;;26.10;44.20;;;;;;4916868;28;95262;-43
2022/07/30 11:26:38;;;;;;;64.85;51.65;;;26.10;45.20;;;;;;4934381;28;89845;-49
2022/07/30 11:29:39;;;;;;;66.47;51.83;;;26.10;44.10;;;;;;4926600;28;92929;-47
2022/07/30 11:32:24;;;;;;;;;;;26.00;45.90;;;;;;4927735;28;93106;-49
2022/07/30 11:34:51;;;;;;;64.75;51.55;;;25.90;47.00;;;;;;4925644;28;90874;-43
2022/07/30 11:37:17;;;;;;;62.47;51.63;;;26.00;45.90;;;;;;4926801;28;90978;-46
2022/07/30 11:40:06;;;;;;;63.30;51.45;;;25.90;45.60;;;;;;4928483;28;92753;-43
2022/07/30 11:42:34;;;;;;;65.55;51.88;;;25.90;46.40;;;;;;4933646;28;89491;-44
2022/07/30 11:45:15;;;;;;;65.20;51.92;;;25.90;46.80;;;;;;4932329;28;94315;-45
2022/07/30 11:47:54;;;;;;;64.80;51.60;;;25.90;48.00;;;;;;4927086;28;93479;-46
2022/07/30 11:50:26;;;;;;;64.78;51.55;;;26.00;46.80;;;;;;4931640;28;90243;-47
2022/07/30 11:53:03;;;;;;;63.55;51.88;;;26.00;47.60;;;;;;4929413;28;90569;-48
2022/07/30 11:55:38;;;;;;;64.78;51.70;;;26.00;46.10;;;;;;4949930;28;91906;-46
2022/07/30 11:58:07;;;;;;;64.65;52.17;;;26.10;45.60;;;;;;4938625;28;90599;-46
2022/07/30 12:00:46;;;;;;;65.90;52.05;;;26.10;46.60;;;;;;4928429;28;92859;-45
2022/07/30 12:03:17;;;;;;;63.13;51.97;;;26.10;47.00;;;;;;4923437;28;96418;-45
2022/07/30 12:05:43;;;;;;;68.07;52.45;;;26.20;45.40;;;;;;4925358;28;92668;-47
2022/07/30 12:08:10;;;;;;;66.32;52.88;;;26.20;44.20;;;;;;4914091;28;91276;-45
2022/07/30 12:10:38;;;;;;;70.43;53.10;;;26.10;45.40;;;;;;4913711;28;94990;-48
2022/07/30 12:13:14;;;;;;;69.40;53.50;;;26.20;44.10;;;;;;4933066;28;90745;-49
2022/07/30 12:15:45;;;;;;;69.78;53.47;;;26.20;44.40;;;;;;4931892;28;90001;-46
2022/07/30 12:18:14;;;;;;;73.13;53.58;;;26.10;45.10;;;;;;4940676;28;90542;-48
2022/07/30 12:20:40;;;;;;;70.78;54.08;;;26.00;45.90;;;;;;4938122;28;91226;-45
2022/07/30 12:23:13;;;;;;;73.15;54.53;;;25.90;46.40;;;;;;4944482;28;92390;-48
2022/07/30 12:25:42;;;;;;;74.22;55.13;;;25.80;46.90;;;;;;4931399;28;95735;-47
2022/07/30 12:28:09;;;;;;;79.28;55.53;;;25.80;47.20;;;;;;4940163;28;94169;-48
2022/07/30 12:30:39;;;;;;;82.80;56.53;;;25.80;47.60;;;;;;4941805;28;90072;-51
2022/07/30 12:33:06;;;;;;;81.22;56.42;;;25.80;47.80;;;;;;4947310;28;96545;-50
2022/07/30 12:35:49;;;;;;;82.20;56.38;;;25.70;48.00;;;;;;4930848;28;90911;-50